Time;durP1;ratioP1;P1;durP2;ratioP2;P2;SDS_P1;SDS_P2;PMS_P1;PMS_P2;Temp;Humidity;BMP_temperature;BMP_pressure;BME280_temperature;BME280_humidity;BME280_pressure;Samples;Min_cycle;Max_cycle;Signal;HPM_P1;HPM_P2
2023/06/02 00:00:41;;;;;;;1.73;1.55;;;23.00;48.50;;;;;;4863101;28;92514;-90
2023/06/02 00:03:08;;;;;;;1.73;1.60;;;23.00;48.00;;;;;;4864069;28;93049;-90
2023/06/02 00:05:34;;;;;;;2.10;1.90;;;23.00;48.10;;;;;;4863703;28;93619;-90
2023/06/02 00:08:02;;;;;;;2.25;2.05;;;23.00;48.00;;;;;;4862198;28;95733;-90
2023/06/02 00:10:28;;;;;;;3.17;1.63;;;23.00;48.20;;;;;;4863871;28;92230;-89
2023/06/02 00:12:54;;;;;;;2.65;1.50;;;23.00;48.20;;;;;;4864526;28;92289;-90
2023/06/02 00:15:19;;;;;;;2.75;1.70;;;23.00;48.20;;;;;;4861813;28;92407;-90
2023/06/02 00:17:45;;;;;;;2.10;1.90;;;23.00;48.30;;;;;;4861978;28;95916;-90
2023/06/02 00:20:11;;;;;;;1.90;1.80;;;23.00;48.30;;;;;;4863190;28;93442;-90
2023/06/02 00:22:38;;;;;;;2.20;1.60;;;23.00;48.30;;;;;;4863896;28;92196;-89
2023/06/02 00:25:05;;;;;;;1.58;1.48;;;23.00;48.30;;;;;;4863692;28;92596;-89
2023/06/02 00:27:31;;;;;;;2.97;1.77;;;23.00;48.20;;;;;;4863128;28;95460;-90
2023/06/02 00:29:56;;;;;;;2.08;1.65;;;23.00;48.30;;;;;;4864095;28;92781;-94
2023/06/02 00:32:22;;;;;;;2.15;1.70;;;22.90;48.30;;;;;;4878286;28;92278;-93
2023/06/02 00:34:48;;;;;;;1.75;1.50;;;23.00;48.30;;;;;;4864009;28;92671;-91
2023/06/02 00:37:13;;;;;;;1.88;1.63;;;23.00;48.30;;;;;;4863291;28;93163;-92
2023/06/02 00:39:39;;;;;;;2.03;1.60;;;23.00;48.40;;;;;;4861919;28;95398;-92
2023/06/02 00:42:05;;;;;;;1.67;1.40;;;23.00;48.40;;;;;;4862613;28;93668;-92
2023/06/02 00:44:31;;;;;;;1.85;1.75;;;22.90;48.30;;;;;;4863158;28;92990;-92
2023/06/02 00:46:57;;;;;;;1.70;1.60;;;23.00;48.30;;;;;;4860969;28;96155;-93
2023/06/02 00:49:23;;;;;;;2.65;1.80;;;22.90;48.30;;;;;;4861613;28;95094;-91
2023/06/02 00:51:49;;;;;;;1.70;1.60;;;22.90;48.30;;;;;;4864553;28;92478;-92
2023/06/02 00:54:16;;;;;;;1.63;1.52;;;22.90;48.40;;;;;;4865687;28;92105;-92
2023/06/02 00:56:42;;;;;;;2.22;2.03;;;22.90;48.40;;;;;;4865457;28;92521;-92
2023/06/02 00:59:09;;;;;;;3.13;1.95;;;22.90;48.40;;;;;;4863838;28;92735;-92
2023/06/02 01:01:35;;;;;;;2.03;1.70;;;22.90;48.50;;;;;;4865327;28;92640;-92
2023/06/02 01:04:01;;;;;;;1.85;1.60;;;22.90;48.40;;;;;;4864999;28;93109;-92
2023/06/02 01:06:34;;;;;;;2.08;1.90;;;22.90;48.60;;;;;;4864167;28;95012;-91
2023/06/02 01:09:07;;;;;;;1.75;1.50;;;22.90;48.60;;;;;;4867461;28;93702;-92
2023/06/02 01:11:33;;;;;;;2.35;1.77;;;22.90;48.60;;;;;;4864663;28;92734;-92
2023/06/02 01:13:59;;;;;;;2.10;1.63;;;22.90;48.70;;;;;;4864605;28;94072;-92
2023/06/02 01:16:27;;;;;;;2.10;1.90;;;22.90;48.60;;;;;;4866672;28;93094;-91
2023/06/02 01:18:52;;;;;;;2.17;1.98;;;22.90;48.70;;;;;;4867075;28;92852;-92
2023/06/02 01:21:23;;;;;;;1.60;1.50;;;22.90;48.70;;;;;;4866354;28;93142;-90
2023/06/02 01:23:57;;;;;;;2.00;1.80;;;22.90;48.80;;;;;;4865278;28;91802;-92
2023/06/02 01:26:23;;;;;;;1.98;1.60;;;22.90;48.90;;;;;;4865632;28;92909;-92
2023/06/02 01:28:49;;;;;;;1.80;1.70;;;22.90;48.80;;;;;;4865871;28;92793;-92
2023/06/02 01:31:23;;;;;;;1.73;1.63;;;22.90;48.90;;;;;;4880760;28;93165;-93
2023/06/02 01:34:13;;;;;;;1.77;1.67;;;22.90;48.90;;;;;;4864958;28;92445;-91
2023/06/02 01:36:40;;;;;;;2.13;1.65;;;22.90;48.90;;;;;;4864749;28;92855;-92
2023/06/02 01:39:08;;;;;;;2.03;1.80;;;22.90;49.00;;;;;;4865957;28;92885;-92
2023/06/02 01:41:40;;;;;;;2.03;1.70;;;22.90;49.00;;;;;;4866114;28;92526;-91
2023/06/02 01:44:06;;;;;;;1.98;1.70;;;22.80;49.00;;;;;;4865720;28;92499;-93
2023/06/02 01:46:32;;;;;;;1.58;1.48;;;22.80;48.90;;;;;;4865994;28;93691;-92
2023/06/02 01:48:58;;;;;;;1.95;1.73;;;22.80;49.00;;;;;;4866470;28;93494;-92
2023/06/02 01:51:24;;;;;;;1.65;1.55;;;22.80;49.10;;;;;;4864980;28;92704;-92
2023/06/02 01:53:50;;;;;;;1.40;1.25;;;22.80;49.00;;;;;;4864874;28;92441;-92
2023/06/02 01:56:16;;;;;;;1.73;1.63;;;22.80;49.10;;;;;;4864192;28;96915;-93
2023/06/02 01:58:41;;;;;;;1.70;1.60;;;22.90;49.40;;;;;;4864049;28;95174;-92
2023/06/02 02:01:07;;;;;;;1.85;1.70;;;22.80;49.30;;;;;;4866628;28;92627;-92
2023/06/02 02:03:33;;;;;;;1.65;1.55;;;22.80;49.30;;;;;;4865699;28;93096;-93
2023/06/02 02:05:59;;;;;;;1.90;1.60;;;22.80;49.10;;;;;;4864717;28;92927;-93
2023/06/02 02:08:25;;;;;;;1.65;1.50;;;22.80;49.20;;;;;;4865961;28;92457;-92
2023/06/02 02:10:51;;;;;;;2.42;1.70;;;22.80;49.30;;;;;;4864359;28;93270;-92
2023/06/02 02:13:16;;;;;;;1.70;1.50;;;22.80;49.20;;;;;;4866589;28;92789;-92
2023/06/02 02:15:42;;;;;;;1.50;1.40;;;22.80;49.20;;;;;;4865592;28;93222;-92
2023/06/02 02:18:08;;;;;;;1.65;1.50;;;22.80;49.20;;;;;;4865488;28;93906;-91
2023/06/02 02:20:40;;;;;;;1.77;1.50;;;22.80;49.90;;;;;;4864494;28;93454;-91
2023/06/02 02:23:05;;;;;;;1.70;1.60;;;22.80;49.30;;;;;;4865104;28;92309;-92
2023/06/02 02:25:31;;;;;;;1.80;1.70;;;22.80;49.30;;;;;;4864338;28;92980;-93
2023/06/02 02:27:57;;;;;;;1.65;1.55;;;22.80;49.30;;;;;;4864415;28;95069;-91
2023/06/02 02:30:22;;;;;;;1.50;1.40;;;22.80;49.30;;;;;;4864146;28;92674;-92
2023/06/02 02:32:48;;;;;;;1.58;1.45;;;22.80;49.50;;;;;;4863359;28;92240;-91
2023/06/02 02:35:16;;;;;;;1.67;1.58;;;22.80;49.60;;;;;;4864204;28;92996;-92
2023/06/02 02:37:41;;;;;;;1.50;1.30;;;22.80;49.60;;;;;;4878843;28;96025;-91
2023/06/02 02:40:07;;;;;;;1.48;1.38;;;22.80;49.60;;;;;;4864922;28;95371;-92
2023/06/02 02:42:35;;;;;;;1.85;1.60;;;22.80;49.50;;;;;;4863059;28;92944;-93
2023/06/02 02:45:04;;;;;;;2.00;1.77;;;22.80;49.50;;;;;;4862218;28;95243;-92
2023/06/02 02:47:30;;;;;;;1.80;1.50;;;22.80;49.60;;;;;;4863454;28;96522;-91
2023/06/02 02:49:55;;;;;;;1.70;1.60;;;22.80;49.60;;;;;;4865802;28;93663;-92
2023/06/02 02:52:21;;;;;;;1.95;1.75;;;22.80;49.60;;;;;;4863790;28;92195;-91
2023/06/02 02:54:47;;;;;;;2.35;1.60;;;22.80;49.60;;;;;;4864305;28;93099;-92
2023/06/02 02:57:13;;;;;;;1.98;1.77;;;22.80;49.60;;;;;;4862500;28;95502;-92
2023/06/02 02:59:39;;;;;;;1.80;1.63;;;22.80;49.70;;;;;;4864370;28;92586;-92
2023/06/02 03:02:08;;;;;;;1.60;1.50;;;22.80;49.60;;;;;;4865658;28;91725;-92
2023/06/02 03:04:34;;;;;;;1.88;1.65;;;22.80;49.60;;;;;;4863545;28;95676;-91
2023/06/02 03:07:04;;;;;;;1.88;1.77;;;22.80;49.70;;;;;;4863382;28;95694;-92
2023/06/02 03:09:29;;;;;;;1.35;1.25;;;22.80;49.70;;;;;;4862528;28;93390;-92
2023/06/02 03:11:57;;;;;;;1.60;1.50;;;22.80;49.70;;;;;;4862805;28;93248;-92
2023/06/02 03:14:24;;;;;;;1.67;1.58;;;22.70;49.70;;;;;;4861397;28;95639;-92
2023/06/02 03:16:50;;;;;;;1.60;1.33;;;22.70;49.70;;;;;;4861760;28;94981;-92
2023/06/02 03:19:17;;;;;;;1.48;1.38;;;22.70;50.30;;;;;;4864737;28;92439;-92
2023/06/02 03:21:42;;;;;;;1.90;1.40;;;22.70;49.80;;;;;;4862797;28;92073;-92
2023/06/02 03:24:19;;;;;;;1.85;1.60;;;22.70;49.80;;;;;;4863067;28;94223;-92
2023/06/02 03:26:45;;;;;;;1.50;1.40;;;22.70;50.00;;;;;;4864528;28;92330;-91
2023/06/02 03:29:12;;;;;;;1.55;1.45;;;22.70;49.90;;;;;;4863468;28;92996;-92
2023/06/02 03:31:39;;;;;;;1.98;1.85;;;22.70;49.80;;;;;;4863788;28;92026;-93
2023/06/02 03:34:06;;;;;;;1.75;1.65;;;22.70;50.10;;;;;;4864393;28;93957;-92
2023/06/02 03:36:35;;;;;;;2.10;1.40;;;22.70;50.00;;;;;;4877447;28;96268;-92
2023/06/02 03:39:08;;;;;;;1.65;1.55;;;22.70;50.00;;;;;;4863544;28;92670;-92
2023/06/02 03:41:36;;;;;;;2.10;1.90;;;22.70;49.80;;;;;;4863088;28;93201;-92
2023/06/02 03:44:03;;;;;;;1.60;1.50;;;22.70;50.00;;;;;;4864246;28;92733;-92
2023/06/02 03:46:29;;;;;;;1.98;1.30;;;22.70;50.40;;;;;;4860402;28;95182;-92
2023/06/02 03:48:55;;;;;;;2.10;1.70;;;22.70;50.30;;;;;;4862896;28;92784;-91
2023/06/02 03:51:21;;;;;;;2.00;1.58;;;22.70;50.30;;;;;;4864292;28;91950;-91
2023/06/02 03:53:49;;;;;;;1.50;1.40;;;22.70;50.30;;;;;;4862882;28;95383;-92
2023/06/02 03:56:14;;;;;;;1.60;1.50;;;22.70;50.40;;;;;;4863023;28;93865;-92
2023/06/02 03:58:40;;;;;;;1.70;1.35;;;22.70;50.40;;;;;;4862442;28;93432;-92
2023/06/02 04:01:06;;;;;;;2.13;1.88;;;22.70;50.50;;;;;;4862256;28;92859;-91
2023/06/02 04:03:37;;;;;;;1.77;1.67;;;22.70;50.40;;;;;;4861817;28;96029;-92
2023/06/02 04:06:06;;;;;;;1.55;1.45;;;22.70;50.30;;;;;;4861577;28;95689;-92
2023/06/02 04:08:32;;;;;;;;;;;22.70;50.50;;;;;;4879375;28;92164;-92
2023/06/02 04:10:58;;;;;;;1.70;1.60;;;22.70;50.40;;;;;;4879044;28;92643;-93
2023/06/02 04:13:24;;;;;;;1.50;1.40;;;22.70;50.50;;;;;;4877643;28;96005;-93
2023/06/02 04:15:49;;;;;;;1.75;1.25;;;22.70;50.40;;;;;;4862258;28;100199;-92
2023/06/02 04:18:15;;;;;;;1.65;1.40;;;22.60;50.40;;;;;;4862152;28;93021;-92
2023/06/02 04:20:41;;;;;;;1.50;1.40;;;22.60;50.40;;;;;;4861751;28;92685;-92
2023/06/02 04:23:06;;;;;;;1.65;1.55;;;22.60;50.40;;;;;;4860840;28;96762;-91
2023/06/02 04:25:32;;;;;;;1.88;1.40;;;22.70;50.30;;;;;;4860033;28;96208;-92
2023/06/02 04:27:57;;;;;;;1.52;1.42;;;22.60;50.30;;;;;;4862835;28;92452;-91
2023/06/02 04:30:23;;;;;;;1.33;1.23;;;22.60;50.50;;;;;;4862192;28;93143;-93
2023/06/02 04:32:49;;;;;;;1.60;1.50;;;22.60;50.50;;;;;;4861602;28;98287;-92
2023/06/02 04:35:15;;;;;;;1.73;1.63;;;22.60;50.50;;;;;;4862002;28;95897;-91
2023/06/02 04:37:43;;;;;;;2.20;1.50;;;22.60;50.50;;;;;;4862198;28;92684;-91
2023/06/02 04:40:10;;;;;;;1.75;1.65;;;22.60;50.50;;;;;;4864150;28;92275;-92
2023/06/02 04:42:38;;;;;;;1.70;1.60;;;22.60;50.70;;;;;;4878096;28;96596;-92
2023/06/02 04:45:13;;;;;;;2.38;1.70;;;22.60;50.50;;;;;;4863552;28;92938;-92
2023/06/02 04:47:40;;;;;;;1.67;1.40;;;22.60;50.50;;;;;;4877060;28;94448;-92
2023/06/02 04:50:12;;;;;;;1.52;1.42;;;22.60;50.50;;;;;;4862096;28;92485;-92
2023/06/02 04:52:42;;;;;;;1.70;1.60;;;22.60;50.50;;;;;;4861729;28;95481;-92
2023/06/02 04:55:10;;;;;;;1.90;1.50;;;22.60;50.70;;;;;;4863179;28;96073;-92
2023/06/02 04:57:36;;;;;;;1.88;1.75;;;22.60;50.60;;;;;;4864311;28;93492;-92
2023/06/02 05:00:04;;;;;;;1.60;1.50;;;22.60;50.70;;;;;;4862055;28;92540;-92
2023/06/02 05:02:30;;;;;;;2.50;1.90;;;22.60;51.20;;;;;;4861042;28;94990;-92
2023/06/02 05:04:56;;;;;;;1.77;1.52;;;22.60;50.80;;;;;;4861519;28;95231;-93
2023/06/02 05:07:22;;;;;;;1.52;1.42;;;22.60;50.70;;;;;;4862076;28;92898;-91
2023/06/02 05:09:48;;;;;;;1.70;1.48;;;22.60;50.70;;;;;;4876935;28;92169;-91
2023/06/02 05:12:16;;;;;;;2.05;1.88;;;22.60;50.80;;;;;;4860742;28;98118;-91
2023/06/02 05:14:42;;;;;;;1.58;1.48;;;22.60;50.80;;;;;;4860829;28;95126;-92
2023/06/02 05:17:07;;;;;;;1.55;1.45;;;22.60;50.80;;;;;;4862471;28;92369;-92
2023/06/02 05:19:33;;;;;;;1.52;1.42;;;22.60;50.80;;;;;;4860461;28;92513;-92
2023/06/02 05:21:59;;;;;;;1.40;1.30;;;22.60;50.80;;;;;;4861408;28;95990;-92
2023/06/02 05:24:25;;;;;;;1.48;1.38;;;22.60;50.80;;;;;;4862826;28;92680;-91
2023/06/02 05:26:50;;;;;;;1.75;1.50;;;22.60;50.90;;;;;;4876262;28;92046;-92
2023/06/02 05:29:16;;;;;;;1.73;1.63;;;22.60;50.80;;;;;;4877927;28;91965;-90
2023/06/02 05:31:41;;;;;;;1.63;1.45;;;22.60;50.90;;;;;;4861173;28;96056;-92
2023/06/02 05:34:07;;;;;;;1.63;1.50;;;22.60;50.70;;;;;;4862377;28;95149;-92
2023/06/02 05:36:33;;;;;;;1.60;1.50;;;22.60;50.80;;;;;;4860114;28;93787;-92
2023/06/02 05:38:59;;;;;;;1.67;1.52;;;22.60;50.80;;;;;;4864882;28;93093;-92
2023/06/02 05:41:28;;;;;;;1.83;1.52;;;22.60;50.80;;;;;;4863674;28;95470;-92
2023/06/02 05:43:55;;;;;;;1.40;1.20;;;22.60;50.60;;;;;;4862846;28;95386;-92
2023/06/02 05:46:22;;;;;;;1.40;1.30;;;22.60;50.70;;;;;;4865421;28;92654;-91
2023/06/02 05:48:48;;;;;;;1.92;1.40;;;22.60;50.80;;;;;;4864455;28;92720;-92
2023/06/02 05:51:14;;;;;;;1.60;1.50;;;22.60;50.80;;;;;;4863953;28;95726;-91
2023/06/02 05:53:40;;;;;;;1.55;1.42;;;22.60;50.80;;;;;;4863535;28;95118;-91
2023/06/02 05:56:06;;;;;;;1.50;1.40;;;22.60;50.80;;;;;;4864359;28;92565;-92
2023/06/02 05:58:36;;;;;;;1.50;1.40;;;22.60;50.70;;;;;;4864251;28;92718;-92
2023/06/02 06:01:02;;;;;;;1.92;1.60;;;22.60;50.90;;;;;;4880394;28;96639;-92
2023/06/02 06:03:27;;;;;;;2.15;1.50;;;22.60;50.80;;;;;;4864099;28;96170;-92
2023/06/02 06:05:53;;;;;;;1.58;1.33;;;22.60;50.70;;;;;;4864516;28;92645;-91
2023/06/02 06:08:19;;;;;;;1.90;1.38;;;22.60;50.80;;;;;;4863184;28;95778;-91
2023/06/02 06:10:44;;;;;;;2.50;1.63;;;22.50;50.80;;;;;;4864371;28;92966;-92
2023/06/02 06:13:10;;;;;;;1.55;1.42;;;22.50;50.80;;;;;;4865176;28;92825;-91
2023/06/02 06:15:36;;;;;;;1.38;1.23;;;22.50;51.00;;;;;;4862506;28;92439;-91
2023/06/02 06:18:01;;;;;;;1.83;1.73;;;22.60;50.90;;;;;;4862985;28;92462;-91
2023/06/02 06:20:27;;;;;;;1.60;1.50;;;22.60;50.90;;;;;;4861980;28;95547;-91
2023/06/02 06:22:52;;;;;;;1.95;1.50;;;22.60;50.90;;;;;;4862274;28;95062;-91
2023/06/02 06:25:18;;;;;;;2.17;1.42;;;22.50;50.70;;;;;;4864127;28;95053;-92
2023/06/02 06:27:44;;;;;;;1.80;1.58;;;22.50;50.80;;;;;;4864964;28;94635;-91
2023/06/02 06:30:10;;;;;;;1.70;1.60;;;22.50;50.90;;;;;;4863719;28;95748;-91
2023/06/02 06:32:36;;;;;;;1.48;1.38;;;22.50;50.80;;;;;;4864589;28;93088;-92
2023/06/02 06:35:01;;;;;;;4.95;1.80;;;22.60;50.40;;;;;;4865044;28;93009;-84
2023/06/02 06:37:30;;;;;;;1.58;1.48;;;22.60;49.80;;;;;;4864709;28;92775;-86
2023/06/02 06:39:56;;;;;;;2.70;1.97;;;22.60;48.60;;;;;;4862691;28;93357;-88
2023/06/02 06:42:24;;;;;;;5.03;1.90;;;22.60;48.00;;;;;;4864271;28;92792;-87
2023/06/02 06:44:50;;;;;;;2.20;1.83;;;22.60;48.20;;;;;;4863168;28;93345;-87
2023/06/02 06:47:16;;;;;;;3.10;1.70;;;22.60;49.20;;;;;;4863798;28;92832;-87
2023/06/02 06:49:42;;;;;;;3.38;1.80;;;22.60;48.70;;;;;;4861999;28;95186;-87
2023/06/02 06:52:07;;;;;;;2.78;1.52;;;22.60;49.60;;;;;;4865778;28;93810;-88
2023/06/02 06:54:33;;;;;;;6.10;1.75;;;22.60;49.50;;;;;;4864569;28;93083;-87
2023/06/02 06:56:59;;;;;;;3.72;2.40;;;22.60;48.80;;;;;;4863478;28;98547;-85
2023/06/02 06:59:24;;;;;;;2.88;1.98;;;22.60;49.40;;;;;;4863209;28;93897;-88
2023/06/02 07:01:50;;;;;;;3.20;1.98;;;22.60;50.30;;;;;;4862005;28;93516;-87
2023/06/02 07:04:16;;;;;;;9.10;2.88;;;22.70;49.40;;;;;;4863835;28;92470;-88
2023/06/02 07:06:42;;;;;;;9.85;3.22;;;22.60;46.30;;;;;;4864889;28;91474;-91
2023/06/02 07:09:08;;;;;;;7.00;2.50;;;22.60;45.30;;;;;;4865342;28;93269;-91
2023/06/02 07:11:34;;;;;;;7.07;2.75;;;22.60;46.20;;;;;;4864467;28;93474;-90
2023/06/02 07:13:59;;;;;;;6.75;2.20;;;22.60;46.20;;;;;;4862648;28;93589;-90
2023/06/02 07:16:27;;;;;;;5.07;2.28;;;22.60;46.20;;;;;;4864210;28;92155;-90
2023/06/02 07:18:53;;;;;;;7.95;2.97;;;22.60;46.40;;;;;;4863783;28;93155;-89
2023/06/02 07:21:18;;;;;;;10.80;2.90;;;22.50;46.60;;;;;;4860087;28;93189;-88
2023/06/02 07:23:44;;;;;;;5.93;2.67;;;22.60;47.10;;;;;;4860680;28;93557;-88
2023/06/02 07:26:10;;;;;;;6.90;2.83;;;22.60;47.20;;;;;;4861108;28;92599;-89
2023/06/02 07:28:35;;;;;;;8.35;2.83;;;22.60;46.70;;;;;;4859758;28;94689;-89
2023/06/02 07:31:01;;;;;;;6.22;2.55;;;22.60;46.40;;;;;;4862313;28;93487;-89
2023/06/02 07:33:26;;;;;;;7.07;2.40;;;22.60;46.30;;;;;;4860191;28;93025;-89
2023/06/02 07:35:52;;;;;;;5.50;2.13;;;22.60;46.20;;;;;;4861018;28;92882;-89
2023/06/02 07:38:18;;;;;;;4.53;2.78;;;22.60;45.80;;;;;;4861117;28;94206;-86
2023/06/02 07:40:43;;;;;;;9.10;2.53;;;22.60;45.70;;;;;;4864012;28;93932;-89
2023/06/02 07:43:10;;;;;;;5.82;2.53;;;22.60;46.20;;;;;;4865626;28;92100;-88
2023/06/02 07:45:35;;;;;;;7.78;2.55;;;22.70;46.00;;;;;;4861704;28;92635;-86
2023/06/02 07:48:01;;;;;;;192.38;35.95;;;22.60;45.50;;;;;;4862737;28;93528;-84
2023/06/02 07:50:27;;;;;;;129.52;27.55;;;22.60;45.10;;;;;;4863198;28;93329;-86
2023/06/02 07:52:54;;;;;;;92.28;20.38;;;22.70;45.20;;;;;;4864014;28;93025;-88
2023/06/02 07:55:20;;;;;;;79.68;16.15;;;22.70;44.90;;;;;;4864800;28;91967;-88
2023/06/02 07:57:46;;;;;;;67.20;13.45;;;22.60;45.00;;;;;;4864152;28;93604;-88
2023/06/02 08:00:13;;;;;;;53.78;12.80;;;22.60;44.80;;;;;;4863945;28;92872;-88
2023/06/02 08:02:40;;;;;;;57.60;13.27;;;22.60;44.90;;;;;;4877013;28;93494;-88
2023/06/02 08:05:06;;;;;;;51.47;11.55;;;22.50;45.90;;;;;;4863787;28;92477;-88
2023/06/02 08:07:32;;;;;;;58.58;12.90;;;22.60;45.40;;;;;;4861820;28;95923;-88
2023/06/02 08:09:58;;;;;;;46.65;11.85;;;22.60;45.80;;;;;;4862633;28;95780;-87
2023/06/02 08:12:24;;;;;;;39.28;11.10;;;22.50;45.70;;;;;;4862286;28;92735;-87
2023/06/02 08:14:50;;;;;;;45.97;12.00;;;22.60;45.90;;;;;;4863384;28;93345;-88
2023/06/02 08:17:15;;;;;;;58.95;12.82;;;22.50;46.00;;;;;;4863634;28;93001;-88
2023/06/02 08:19:41;;;;;;;39.78;10.88;;;22.50;46.00;;;;;;4854613;28;93883;-87
2023/06/02 08:22:06;;;;;;;41.88;11.32;;;22.50;46.10;;;;;;4862337;28;93057;-89
2023/06/02 08:24:32;;;;;;;42.58;10.85;;;22.60;46.30;;;;;;4863371;28;92914;-88
2023/06/02 08:27:00;;;;;;;50.10;11.77;;;22.50;46.40;;;;;;4861674;28;94338;-88
2023/06/02 08:29:26;;;;;;;34.05;10.75;;;22.50;46.40;;;;;;4862876;28;93443;-87
2023/06/02 08:31:52;;;;;;;36.67;10.30;;;22.60;46.30;;;;;;4862707;28;92545;-86
2023/06/02 08:34:20;;;;;;;37.42;10.63;;;22.60;45.60;;;;;;4864523;28;93098;-87
2023/06/02 08:36:49;;;;;;;30.67;9.05;;;22.60;45.00;;;;;;4859921;28;96036;-87
2023/06/02 08:39:15;;;;;;;31.67;9.85;;;22.60;45.30;;;;;;4861650;28;95920;-87
2023/06/02 08:41:46;;;;;;;41.85;10.93;;;22.60;45.70;;;;;;4864024;28;92658;-87
2023/06/02 08:44:12;;;;;;;41.88;10.52;;;22.60;46.20;;;;;;4861536;28;92227;-87
2023/06/02 08:46:38;;;;;;;34.25;9.13;;;22.60;46.60;;;;;;4861873;28;93099;-86
2023/06/02 08:49:04;;;;;;;39.80;10.63;;;22.60;46.60;;;;;;4863758;28;93778;-88
2023/06/02 08:51:36;;;;;;;39.05;11.48;;;22.60;46.60;;;;;;4862333;28;93746;-87
2023/06/02 08:54:04;;;;;;;36.17;10.00;;;22.60;46.60;;;;;;4861945;28;92727;-87
2023/06/02 08:56:30;;;;;;;28.33;9.68;;;22.60;46.80;;;;;;4862832;28;92950;-88
2023/06/02 08:58:55;;;;;;;35.35;10.30;;;22.60;46.80;;;;;;4862687;28;92838;-87
2023/06/02 09:01:21;;;;;;;33.40;9.63;;;22.60;47.00;;;;;;4861045;28;92664;-87
2023/06/02 09:03:48;;;;;;;39.70;9.65;;;22.60;46.90;;;;;;4862261;28;92082;-87
2023/06/02 09:06:25;;;;;;;29.50;8.85;;;22.70;46.90;;;;;;4861710;28;93378;-86
2023/06/02 09:08:52;;;;;;;25.50;8.90;;;22.70;47.00;;;;;;4861126;28;93508;-87
2023/06/02 09:11:19;;;;;;;23.67;7.72;;;22.60;47.00;;;;;;4863869;28;92503;-86
2023/06/02 09:13:45;;;;;;;28.17;8.88;;;22.70;46.90;;;;;;4867039;28;92304;-88
2023/06/02 09:16:10;;;;;;;32.85;9.88;;;22.70;47.00;;;;;;4867125;28;94716;-88
2023/06/02 09:18:36;;;;;;;29.50;9.15;;;22.70;47.00;;;;;;4865734;28;93754;-88
2023/06/02 09:21:02;;;;;;;25.05;8.32;;;22.70;46.90;;;;;;4866766;28;92321;-88
2023/06/02 09:23:44;;;;;;;31.52;10.02;;;22.70;47.00;;;;;;4865745;28;92538;-87
2023/06/02 09:26:29;;;;;;;32.10;8.75;;;22.70;47.00;;;;;;4878736;28;96195;-84
2023/06/02 09:29:11;;;;;;;27.85;9.07;;;22.80;46.90;;;;;;4878246;28;94214;-86
2023/06/02 09:31:48;;;;;;;26.73;8.70;;;22.80;46.80;;;;;;4866311;28;92271;-86
2023/06/02 09:34:16;;;;;;;25.83;8.45;;;22.80;46.90;;;;;;4881350;28;92313;-86
2023/06/02 09:36:43;;;;;;;21.83;8.13;;;22.80;47.10;;;;;;4862454;28;95782;-88
2023/06/02 09:39:10;;;;;;;26.65;8.95;;;22.80;47.30;;;;;;4863855;28;95821;-88
2023/06/02 09:41:37;;;;;;;21.02;7.60;;;22.90;47.20;;;;;;4864351;28;93777;-87
2023/06/02 09:44:14;;;;;;;23.13;8.25;;;22.90;47.30;;;;;;4865533;28;92187;-89
2023/06/02 09:46:44;;;;;;;27.88;8.50;;;22.90;47.60;;;;;;4864771;28;94120;-89
2023/06/02 09:49:10;;;;;;;21.58;7.97;;;22.90;47.60;;;;;;4866503;28;92795;-87
2023/06/02 09:51:39;;;;;;;24.08;7.72;;;22.90;48.00;;;;;;4885406;23;92798;-89
2023/06/02 09:54:08;;;;;;;26.60;9.02;;;23.00;48.20;;;;;;4871801;28;93553;-90
2023/06/02 09:56:38;;;;;;;25.05;8.30;;;23.00;48.30;;;;;;4867142;28;93857;-87
2023/06/02 09:59:05;;;;;;;;;;;23.00;48.40;;;;;;4864440;28;95149;-88
2023/06/02 10:01:32;;;;;;;22.98;8.25;;;23.00;48.50;;;;;;4865977;28;92548;-87
2023/06/02 10:03:58;;;;;;;20.38;7.30;;;23.00;48.80;;;;;;4865186;28;92424;-87
2023/06/02 10:06:50;;;;;;;28.23;8.82;;;23.00;49.00;;;;;;4862716;28;96631;-86
2023/06/02 10:09:44;;;;;;;20.45;7.63;;;23.00;49.30;;;;;;4864719;28;94333;-86
2023/06/02 10:12:17;;;;;;;24.20;7.72;;;23.00;49.60;;;;;;4866038;28;92349;-86
2023/06/02 10:14:58;;;;;;;24.02;7.43;;;23.00;49.70;;;;;;4863411;28;92219;-86
2023/06/02 10:17:46;;;;;;;20.23;7.45;;;23.00;49.80;;;;;;4878660;28;94191;-87
2023/06/02 10:20:26;;;;;;;21.75;7.38;;;23.00;49.70;;;;;;4863814;28;95987;-86
2023/06/02 10:23:17;;;;;;;17.77;7.80;;;23.00;49.60;;;;;;4866645;28;92077;-87
2023/06/02 10:25:56;;;;;;;19.83;7.70;;;23.00;50.00;;;;;;4867029;28;91800;-87
2023/06/02 10:28:22;;;;;;;21.33;7.65;;;23.00;49.70;;;;;;4864844;28;95716;-87
2023/06/02 10:30:48;;;;;;;21.92;7.80;;;23.00;49.80;;;;;;4865001;28;95948;-87
2023/06/02 10:33:13;;;;;;;19.48;7.65;;;23.10;49.90;;;;;;4865125;28;94026;-88
2023/06/02 10:35:57;;;;;;;15.27;6.03;;;23.10;50.20;;;;;;4863351;28;94100;-86
2023/06/02 10:38:27;;;;;;;19.33;7.40;;;23.10;49.40;;;;;;4864989;28;93198;-88
2023/06/02 10:40:54;;;;;;;17.80;6.25;;;23.10;49.70;;;;;;4859332;28;95499;-87
2023/06/02 10:43:21;;;;;;;16.27;6.57;;;23.20;47.80;;;;;;4846127;28;93009;-86
2023/06/02 10:45:46;;;;;;;17.00;6.47;;;23.10;48.40;;;;;;4865153;28;92551;-88
2023/06/02 10:48:37;;;;;;;15.43;5.95;;;23.00;48.20;;;;;;4865113;28;93303;-87
2023/06/02 10:51:04;;;;;;;13.95;5.75;;;23.00;47.70;;;;;;4863386;28;95648;-87
2023/06/02 10:53:30;;;;;;;19.42;6.93;;;23.00;47.50;;;;;;4865250;28;92333;-88
2023/06/02 10:55:55;;;;;;;15.82;5.53;;;23.00;47.70;;;;;;4863469;28;92939;-86
2023/06/02 10:58:22;;;;;;;12.20;5.00;;;23.00;45.70;;;;;;4863687;28;96481;-86
2023/06/02 11:00:52;;;;;;;16.40;4.53;;;22.90;44.00;;;;;;4864796;28;94006;-86
2023/06/02 11:03:18;;;;;;;12.10;5.00;;;22.90;43.50;;;;;;4863525;28;92831;-86
2023/06/02 11:05:45;;;;;;;13.32;4.25;;;22.80;42.90;;;;;;4864795;28;92425;-87
2023/06/02 11:08:11;;;;;;;8.02;3.67;;;22.80;42.60;;;;;;4862584;28;95284;-86
2023/06/02 11:10:41;;;;;;;12.65;3.85;;;22.80;42.30;;;;;;4861876;28;95789;-86
2023/06/02 11:13:07;;;;;;;9.50;3.83;;;22.70;41.90;;;;;;4863305;28;92448;-86
2023/06/02 11:15:32;;;;;;;11.00;4.28;;;22.70;41.50;;;;;;4863388;28;91999;-87
2023/06/02 11:17:59;;;;;;;8.93;3.47;;;22.70;40.80;;;;;;4863192;28;92991;-86
2023/06/02 11:20:34;;;;;;;8.82;3.15;;;22.70;40.70;;;;;;4861876;28;95419;-87
2023/06/02 11:23:04;;;;;;;9.40;3.58;;;22.70;40.90;;;;;;4862079;28;93740;-87
2023/06/02 11:25:30;;;;;;;9.55;3.55;;;22.70;40.90;;;;;;4863512;28;92808;-87
2023/06/02 11:27:55;;;;;;;11.05;3.40;;;22.60;41.00;;;;;;4864018;28;93219;-85
2023/06/02 11:30:21;;;;;;;11.63;3.28;;;22.70;41.10;;;;;;4862401;28;96681;-87
2023/06/02 11:32:51;;;;;;;9.68;3.33;;;22.60;40.80;;;;;;4863824;28;92482;-88
2023/06/02 11:35:25;;;;;;;10.50;3.20;;;22.60;41.00;;;;;;4861967;28;92509;-86
2023/06/02 11:38:02;;;;;;;6.95;2.85;;;22.60;40.80;;;;;;4862614;28;95848;-85
2023/06/02 11:40:29;;;;;;;9.00;3.13;;;22.70;40.10;;;;;;4862578;28;95222;-85
2023/06/02 11:42:55;;;;;;;13.00;3.38;;;22.70;39.60;;;;;;4864501;28;92881;-86
2023/06/02 11:45:26;;;;;;;9.35;3.58;;;22.70;39.50;;;;;;4862429;28;92668;-88
2023/06/02 11:48:05;;;;;;;8.07;3.03;;;22.60;39.70;;;;;;4862796;28;96541;-86
2023/06/02 11:50:31;;;;;;;9.57;3.42;;;22.60;40.10;;;;;;4864371;28;94184;-87
2023/06/02 11:52:58;;;;;;;7.93;2.90;;;22.70;41.00;;;;;;4865380;28;92701;-86
2023/06/02 11:55:28;;;;;;;7.55;3.25;;;22.70;41.90;;;;;;4865306;28;92713;-86
2023/06/02 11:58:13;;;;;;;11.65;3.10;;;22.70;42.20;;;;;;4862382;28;99528;-85
2023/06/02 12:00:39;;;;;;;9.15;3.30;;;22.70;42.50;;;;;;4864244;28;92359;-85
2023/06/02 12:03:08;;;;;;;8.27;3.63;;;22.80;42.10;;;;;;4864595;28;92867;-85
2023/06/02 12:05:35;;;;;;;10.23;3.08;;;22.90;42.40;;;;;;4862015;28;91865;-86
2023/06/02 12:08:11;;;;;;;11.65;3.45;;;22.90;42.40;;;;;;4861840;28;95835;-87
2023/06/02 12:10:41;;;;;;;7.28;2.60;;;22.80;42.50;;;;;;4863510;28;92489;-86
2023/06/02 12:13:07;;;;;;;10.88;3.60;;;22.80;42.40;;;;;;4864769;28;93723;-86
2023/06/02 12:15:34;;;;;;;20.70;5.68;;;22.80;42.80;;;;;;4863298;28;93074;-86
2023/06/02 12:18:01;;;;;;;19.88;5.88;;;22.80;42.70;;;;;;4861987;28;95432;-87
2023/06/02 12:20:36;;;;;;;32.55;7.72;;;23.00;43.10;;;;;;4860679;28;95645;-87
2023/06/02 12:23:02;;;;;;;29.30;7.68;;;22.90;42.70;;;;;;4863725;28;92962;-86
2023/06/02 12:25:28;;;;;;;27.63;6.68;;;22.80;42.90;;;;;;4861633;28;92526;-87
2023/06/02 12:28:10;;;;;;;16.63;5.18;;;22.80;42.80;;;;;;4861199;28;94376;-87
2023/06/02 12:30:36;;;;;;;34.17;9.88;;;22.80;43.10;;;;;;4878202;28;94960;-88
2023/06/02 12:33:09;;;;;;;30.17;6.63;;;22.80;43.00;;;;;;4863708;28;92660;-88
2023/06/02 12:35:36;;;;;;;26.00;7.50;;;22.80;43.50;;;;;;4878045;28;92948;-87
2023/06/02 12:38:03;;;;;;;39.28;10.00;;;22.80;43.30;;;;;;4860937;28;95743;-88
2023/06/02 12:40:29;;;;;;;34.83;8.73;;;22.90;43.60;;;;;;4862646;28;99317;-87
2023/06/02 12:42:55;;;;;;;30.77;8.75;;;23.00;43.80;;;;;;4866047;28;92914;-87
2023/06/02 12:45:21;;;;;;;27.77;7.75;;;23.00;43.80;;;;;;4861698;28;92734;-87